createdAt,value
2022-11-20T00:01:34.868Z,-6.91
2022-11-20T00:04:02.944Z,-6.80
2022-11-20T00:06:31.382Z,-6.95
2022-11-20T00:09:01.508Z,-6.84
2022-11-20T00:11:31.305Z,-6.87
2022-11-20T00:14:02.805Z,-7.08
2022-11-20T00:16:33.011Z,-7.21
2022-11-20T00:19:02.147Z,-7.05
2022-11-20T00:21:31.315Z,-7.40
2022-11-20T00:24:00.175Z,-7.30
2022-11-20T00:26:29.358Z,-7.06
2022-11-20T00:29:01.141Z,-6.62
2022-11-20T00:31:31.264Z,-6.54
2022-11-20T00:33:59.226Z,-6.50
2022-11-20T00:36:30.188Z,-6.12
2022-11-20T00:38:59.608Z,-6.24
2022-11-20T00:41:30.034Z,-5.79
2022-11-20T00:43:58.753Z,-5.62
2022-11-20T00:46:29.025Z,-5.46
2022-11-20T00:48:57.845Z,-5.38
2022-11-20T00:51:28.775Z,-5.53
2022-11-20T00:54:01.153Z,-5.14
2022-11-20T00:56:29.585Z,-5.36
2022-11-20T00:59:01.154Z,-5.03
2022-11-20T01:01:31.040Z,-5.02
2022-11-20T01:04:01.408Z,-5.01
2022-11-20T01:06:33.461Z,-5.04
2022-11-20T01:09:06.237Z,-5.31
2022-11-20T01:11:40.017Z,-5.04
2022-11-20T01:14:15.167Z,-4.96
2022-11-20T01:16:47.076Z,-5.23
2022-11-20T01:19:18.959Z,-4.99
2022-11-20T01:21:50.776Z,-4.87
2022-11-20T01:24:21.912Z,-4.98
2022-11-20T01:26:51.986Z,-4.87
2022-11-20T01:29:25.470Z,-4.88
2022-11-20T01:31:54.110Z,-4.90
2022-11-20T01:34:23.624Z,-5.10
2022-11-20T01:36:52.905Z,-5.17
2022-11-20T01:39:25.270Z,-5.10
2022-11-20T01:42:14.228Z,-4.66
2022-11-20T01:44:53.251Z,-4.31
2022-11-20T01:47:40.817Z,-4.32
2022-11-20T01:50:30.140Z,-4.01
2022-11-20T01:53:06.401Z,-3.88
2022-11-20T01:55:40.520Z,-3.79
2022-11-20T01:58:09.682Z,-3.71
2022-11-20T02:00:37.752Z,-3.60
2022-11-20T02:03:11.046Z,-3.66
2022-11-20T02:06:25.153Z,-3.75
2022-11-20T02:08:54.066Z,-3.35
2022-11-20T02:11:22.498Z,-3.34
2022-11-20T02:13:51.099Z,-3.38
2022-11-20T02:16:38.967Z,-3.24
2022-11-20T02:19:28.558Z,-3.30
2022-11-20T02:22:20.530Z,-3.11
2022-11-20T02:24:49.031Z,-3.39
2022-11-20T02:27:18.118Z,-3.40
2022-11-20T02:30:00.259Z,-3.03
2022-11-20T02:32:33.332Z,-2.98
2022-11-20T02:35:27.378Z,-2.94
2022-11-20T02:37:57.858Z,-3.03
2022-11-20T02:40:26.564Z,-2.93
2022-11-20T02:42:56.943Z,-2.92
2022-11-20T02:45:25.447Z,-2.94
2022-11-20T02:47:54.030Z,-2.89
2022-11-20T02:50:22.208Z,-2.84
2022-11-20T02:52:50.233Z,-2.88
2022-11-20T02:55:18.129Z,-2.85
2022-11-20T02:57:46.393Z,-2.83
2022-11-20T03:00:14.932Z,-2.79
2022-11-20T03:02:44.207Z,-2.84
2022-11-20T03:05:12.578Z,-2.85
2022-11-20T03:07:40.382Z,-2.78
2022-11-20T03:10:09.079Z,-3.08
2022-11-20T03:12:37.338Z,-2.75
2022-11-20T03:15:05.895Z,-2.79
2022-11-20T03:17:33.771Z,-3.10
2022-11-20T03:20:02.226Z,-2.76
2022-11-20T03:22:31.258Z,-3.00
2022-11-20T03:24:59.211Z,-2.75
2022-11-20T03:27:27.366Z,-2.68
2022-11-20T03:29:55.623Z,-2.86
2022-11-20T03:32:23.528Z,-2.69
2022-11-20T03:34:51.523Z,-2.73
2022-11-20T03:37:20.194Z,-2.75
2022-11-20T03:39:48.003Z,-2.77
2022-11-20T03:42:34.614Z,-3.06
2022-11-20T03:45:02.565Z,-2.95
2022-11-20T03:47:30.433Z,-2.93
2022-11-20T03:49:58.334Z,-3.01
2022-11-20T03:52:26.076Z,-3.31
2022-11-20T03:54:54.053Z,-3.18
2022-11-20T03:57:22.238Z,-3.27
2022-11-20T03:59:49.976Z,-3.45
2022-11-20T04:02:19.780Z,-3.57
2022-11-20T04:04:47.956Z,-3.56
2022-11-20T04:07:15.776Z,-3.50
2022-11-20T04:09:43.836Z,-3.47
2022-11-20T04:12:11.922Z,-3.47
2022-11-20T04:14:39.744Z,-3.46
2022-11-20T04:17:07.632Z,-3.26
2022-11-20T04:19:35.722Z,-3.57
2022-11-20T04:22:03.775Z,-3.29
2022-11-20T04:24:31.739Z,-3.40
2022-11-20T04:26:59.629Z,-3.32
2022-11-20T04:29:27.480Z,-3.31
2022-11-20T04:31:55.820Z,-3.33
2022-11-20T04:34:23.766Z,-3.35
2022-11-20T04:36:51.620Z,-3.53
2022-11-20T04:39:20.074Z,-3.39
2022-11-20T04:41:48.673Z,-3.46
2022-11-20T04:44:16.547Z,-3.43
2022-11-20T04:46:44.434Z,-3.46
2022-11-20T04:49:13.122Z,-3.47
2022-11-20T04:51:41.065Z,-3.51
2022-11-20T04:54:11.928Z,-3.56
2022-11-20T04:56:39.900Z,-3.51
2022-11-20T04:59:07.655Z,-4.08
2022-11-20T05:01:35.777Z,-3.62
2022-11-20T05:04:03.902Z,-3.62
2022-11-20T05:06:31.707Z,-3.59
2022-11-20T05:08:59.961Z,-3.81
2022-11-20T05:11:30.254Z,-3.56
2022-11-20T05:14:00.905Z,-3.85
2022-11-20T05:16:28.879Z,-3.63
2022-11-20T05:18:57.452Z,-4.03
2022-11-20T05:21:25.426Z,-3.68
2022-11-20T05:23:53.404Z,-3.74
2022-11-20T05:26:23.400Z,-3.91
2022-11-20T05:28:52.183Z,-3.91
2022-11-20T05:31:27.021Z,-4.29
2022-11-20T05:33:58.312Z,-4.38
2022-11-20T05:36:26.336Z,-4.20
2022-11-20T05:38:59.694Z,-4.48
2022-11-20T05:41:30.086Z,-4.56
2022-11-20T05:43:59.598Z,-4.21
2022-11-20T05:46:29.276Z,-4.29
2022-11-20T05:48:59.154Z,-4.36
2022-11-20T05:51:28.347Z,-4.29
2022-11-20T05:53:59.772Z,-4.26
2022-11-20T05:56:27.925Z,-4.25
2022-11-20T05:58:55.888Z,-4.19
2022-11-20T06:01:27.106Z,-4.39
2022-11-20T06:03:57.224Z,-4.11
2022-11-20T06:06:27.108Z,-4.39
2022-11-20T06:08:56.609Z,-4.23
2022-11-20T06:11:24.595Z,-4.23
2022-11-20T06:13:52.862Z,-4.95
2022-11-20T06:16:21.540Z,-4.50
2022-11-20T06:18:49.799Z,-4.39
2022-11-20T06:21:23.212Z,-4.31
2022-11-20T06:23:53.596Z,-4.16
2022-11-20T06:26:24.769Z,-3.82
2022-11-20T06:28:53.935Z,-3.93
2022-11-20T06:31:24.837Z,-3.68
2022-11-20T06:33:53.737Z,-3.91
2022-11-20T06:36:24.017Z,-3.44
2022-11-20T06:38:52.178Z,-3.75
2022-11-20T06:41:22.766Z,-3.43
2022-11-20T06:43:51.432Z,-3.83
2022-11-20T06:46:21.232Z,-3.25
2022-11-20T06:48:50.845Z,-3.22
2022-11-20T06:51:19.308Z,-3.22
2022-11-20T06:53:47.484Z,-3.21
2022-11-20T06:56:15.687Z,-3.12
2022-11-20T06:58:43.860Z,-3.13
2022-11-20T07:01:15.131Z,-3.27
2022-11-20T07:03:45.214Z,-2.96
2022-11-20T07:06:13.206Z,-3.17
2022-11-20T07:08:41.449Z,-3.05
2022-11-20T07:11:09.629Z,-2.88
2022-11-20T07:13:37.606Z,-2.72
2022-11-20T07:16:09.384Z,-2.67
2022-11-20T07:18:37.716Z,-3.02
2022-11-20T07:21:11.104Z,-2.52
2022-11-20T07:23:39.408Z,-2.56
2022-11-20T07:26:10.436Z,-2.79
2022-11-20T07:28:39.382Z,-2.58
2022-11-20T07:31:08.604Z,-2.41
2022-11-20T07:33:36.580Z,-2.39
2022-11-20T07:36:05.299Z,-2.55
2022-11-20T07:38:33.392Z,-2.30
2022-11-20T07:41:04.264Z,-2.20
2022-11-20T07:43:34.819Z,-2.22
2022-11-20T07:46:06.598Z,-2.33
2022-11-20T07:48:36.185Z,-2.23
2022-11-20T07:51:04.185Z,-2.12
2022-11-20T07:53:32.125Z,-2.09
2022-11-20T07:56:04.512Z,-2.10
2022-11-20T07:58:35.500Z,-2.05
2022-11-20T08:01:09.283Z,-1.91
2022-11-20T08:03:40.677Z,-2.46
2022-11-20T08:06:09.090Z,-2.13
2022-11-20T08:08:42.425Z,-1.94
2022-11-20T08:11:29.917Z,-2.18
2022-11-20T08:14:13.362Z,-1.96
2022-11-20T08:16:47.691Z,-2.04
2022-11-20T08:19:18.835Z,-1.94
2022-11-20T08:21:47.530Z,-2.00
2022-11-20T08:24:15.445Z,-1.94
2022-11-20T08:26:43.659Z,-2.04
2022-11-20T08:29:11.869Z,-1.61
2022-11-20T08:31:40.150Z,-1.69
2022-11-20T08:34:09.620Z,-1.76
2022-11-20T08:36:38.431Z,-1.65
2022-11-20T08:39:06.468Z,-1.56
2022-11-20T08:41:34.936Z,-1.62
2022-11-20T08:44:09.071Z,-1.56
2022-11-20T08:46:39.400Z,-1.92
2022-11-20T08:49:12.661Z,-1.73
2022-11-20T08:51:42.550Z,-1.82
2022-11-20T08:54:11.174Z,-1.32
2022-11-20T08:56:39.493Z,-1.41
2022-11-20T08:59:27.054Z,-1.70
2022-11-20T09:01:56.489Z,-1.67
2022-11-20T09:04:24.549Z,-1.54
2022-11-20T09:06:53.264Z,-1.62
2022-11-20T09:09:21.847Z,-1.52
2022-11-20T09:11:51.297Z,-1.75
2022-11-20T09:14:19.530Z,-1.42
2022-11-20T09:16:48.145Z,-1.55
2022-11-20T09:22:04.642Z,-1.30
2022-11-20T09:24:34.288Z,-1.35
2022-11-20T09:27:06.584Z,-1.47
2022-11-20T09:29:34.779Z,-1.48
2022-11-20T09:32:02.944Z,-1.68
2022-11-20T09:34:31.084Z,-1.44
2022-11-20T09:37:01.632Z,-1.46
2022-11-20T09:39:33.111Z,-1.43
2022-11-20T09:42:42.839Z,-1.66
2022-11-20T09:45:24.138Z,-1.31
2022-11-20T09:48:07.418Z,-1.28
2022-11-20T09:50:55.943Z,-1.31
2022-11-20T09:54:00.446Z,-1.21
2022-11-20T09:56:30.372Z,-1.14
2022-11-20T09:59:06.177Z,-1.32
2022-11-20T10:01:39.765Z,-1.34
2022-11-20T10:04:20.828Z,-1.24
2022-11-20T10:07:34.709Z,-1.44
2022-11-20T10:10:02.876Z,-1.25
2022-11-20T10:12:46.335Z,-1.32
2022-11-20T10:15:42.084Z,-1.39
2022-11-20T10:18:41.918Z,-1.22
2022-11-20T10:21:24.329Z,-1.12
2022-11-20T10:24:32.290Z,-1.06
2022-11-20T10:28:11.793Z,-1.07
2022-11-20T10:30:44.976Z,-1.05
2022-11-20T10:33:24.928Z,-1.00
2022-11-20T10:36:17.795Z,-0.94
2022-11-20T10:38:55.976Z,-1.26
2022-11-20T10:41:41.587Z,-0.96
2022-11-20T10:44:52.329Z,-0.83
2022-11-20T10:47:23.926Z,-0.79
2022-11-20T10:49:58.492Z,-0.80
2022-11-20T10:53:06.383Z,-0.90
2022-11-20T10:56:21.270Z,-1.07
2022-11-20T10:59:13.569Z,-1.24
2022-11-20T11:01:44.036Z,-1.07
2022-11-20T11:04:42.301Z,-0.88
2022-11-20T11:07:25.728Z,-0.79
2022-11-20T11:09:57.304Z,-1.05
2022-11-20T11:12:28.492Z,-0.96
2022-11-20T11:14:58.880Z,-0.78
2022-11-20T11:17:32.364Z,-0.78
2022-11-20T11:20:05.326Z,-0.85
2022-11-20T11:22:46.252Z,-0.88
2022-11-20T11:25:36.958Z,-1.04
2022-11-20T11:28:26.978Z,-0.99
2022-11-20T11:30:57.175Z,-1.05
2022-11-20T11:33:31.831Z,-1.12
2022-11-20T11:36:05.890Z,-0.89
2022-11-20T11:38:44.320Z,-0.83
2022-11-20T11:41:22.116Z,-0.84
2022-11-20T11:44:20.888Z,-0.76
2022-11-20T11:46:56.873Z,-1.00
2022-11-20T11:49:25.599Z,-0.78
2022-11-20T11:52:05.097Z,-0.70
2022-11-20T11:54:45.240Z,-0.78
2022-11-20T11:58:10.873Z,-1.09
2022-11-20T12:00:46.703Z,-1.09
2022-11-20T12:03:28.450Z,-1.09
2022-11-20T12:06:06.882Z,-0.86
2022-11-20T12:08:44.371Z,-0.74
2022-11-20T12:11:25.447Z,-0.62
2022-11-20T12:14:35.349Z,-0.70
2022-11-20T12:17:04.077Z,-0.93
2022-11-20T12:19:35.793Z,-0.86
2022-11-20T12:22:11.781Z,-1.04
2022-11-20T12:25:03.867Z,-0.94
2022-11-20T12:28:12.908Z,-0.88
2022-11-20T12:30:54.291Z,-0.95
2022-11-20T12:33:45.956Z,-0.84
2022-11-20T12:36:45.422Z,-0.80
2022-11-20T12:39:35.190Z,-0.86
2022-11-20T12:43:18.466Z,-0.86
2022-11-20T12:46:12.549Z,-0.89
2022-11-20T12:48:49.236Z,-0.82
2022-11-20T12:51:43.690Z,-0.99
2022-11-20T12:54:39.303Z,-0.95
2022-11-20T12:57:34.762Z,-0.94
2022-11-20T13:00:16.675Z,-0.89
2022-11-20T13:02:57.227Z,-0.82
2022-11-20T13:06:11.598Z,-1.03
2022-11-20T13:08:49.744Z,-0.94
2022-11-20T13:11:49.030Z,-0.83
2022-11-20T13:14:48.867Z,-0.92
2022-11-20T13:17:37.310Z,-0.83
2022-11-20T13:20:14.081Z,-0.90
2022-11-20T13:22:50.329Z,-1.10
2022-11-20T13:25:38.874Z,-0.73
2022-11-20T13:28:31.319Z,-0.77
2022-11-20T13:31:00.416Z,-0.75
2022-11-20T13:33:38.996Z,-0.79
2022-11-20T13:36:30.058Z,-1.08
2022-11-20T13:38:58.554Z,-0.92
2022-11-20T13:41:39.203Z,-0.94
2022-11-20T13:44:15.577Z,-0.98
2022-11-20T13:46:47.290Z,-0.97
2022-11-20T13:49:18.634Z,-0.88
2022-11-20T13:51:52.073Z,-0.97
2022-11-20T13:55:03.224Z,-0.91
2022-11-20T13:58:23.461Z,-0.95
2022-11-20T14:01:32.622Z,-1.00
2022-11-20T14:04:08.063Z,-1.10
2022-11-20T14:06:45.341Z,-0.80
2022-11-20T14:09:31.178Z,-0.83
2022-11-20T14:11:59.722Z,-0.85
2022-11-20T14:14:30.765Z,-0.76
2022-11-20T14:17:10.872Z,-0.75
2022-11-20T14:19:42.645Z,-0.81
2022-11-20T14:22:12.125Z,-1.43
2022-11-20T14:24:40.045Z,-1.01
2022-11-20T14:27:24.681Z,-1.07
2022-11-20T14:29:53.397Z,-1.14
2022-11-20T14:32:28.426Z,-1.45
2022-11-20T14:35:08.025Z,-1.24
2022-11-20T14:37:40.915Z,-1.31
2022-11-20T14:40:26.834Z,-1.41
2022-11-20T14:42:55.754Z,-1.77
2022-11-20T14:45:24.981Z,-1.48
2022-11-20T14:47:57.486Z,-1.54
2022-11-20T14:50:30.535Z,-1.64
2022-11-20T14:53:02.082Z,-1.81
2022-11-20T14:55:34.674Z,-1.65
2022-11-20T14:58:21.347Z,-1.71
2022-11-20T15:01:08.904Z,-1.73
2022-11-20T15:03:41.449Z,-1.73
2022-11-20T15:06:13.856Z,-1.77
2022-11-20T15:08:53.489Z,-1.82
2022-11-20T15:11:33.634Z,-1.80
2022-11-20T15:14:07.948Z,-1.94
2022-11-20T15:16:36.102Z,-1.85
2022-11-20T15:19:14.177Z,-2.22
2022-11-20T15:21:42.367Z,-2.29
2022-11-20T15:24:11.070Z,-1.99
2022-11-20T15:26:44.305Z,-2.11
2022-11-20T15:29:20.394Z,-2.39
2022-11-20T15:31:48.665Z,-2.20
2022-11-20T15:34:17.887Z,-2.28
2022-11-20T15:36:46.884Z,-2.55
2022-11-20T15:39:15.089Z,-2.34
2022-11-20T15:41:43.219Z,-2.29
2022-11-20T15:44:11.396Z,-2.70
2022-11-20T15:46:46.401Z,-2.40
2022-11-20T15:49:17.672Z,-2.41
2022-11-20T15:51:49.945Z,-2.70
2022-11-20T15:54:23.566Z,-2.39
2022-11-20T15:56:55.629Z,-2.44
2022-11-20T15:59:23.759Z,-2.42
2022-11-20T16:01:51.710Z,-2.46
2022-11-20T16:04:20.048Z,-2.46
2022-11-20T16:06:48.995Z,-2.69
2022-11-20T16:09:17.494Z,-2.90
2022-11-20T16:11:45.540Z,-2.70
2022-11-20T16:14:32.409Z,-2.75
2022-11-20T16:17:00.403Z,-2.75
2022-11-20T16:19:28.421Z,-2.77
2022-11-20T16:22:02.439Z,-2.79
2022-11-20T16:24:31.252Z,-3.63
2022-11-20T16:26:59.327Z,-2.87
2022-11-20T16:29:27.183Z,-2.95
2022-11-20T16:31:55.666Z,-3.20
2022-11-20T16:34:24.024Z,-3.24
2022-11-20T16:36:52.020Z,-3.05
2022-11-20T16:39:23.720Z,-3.20
2022-11-20T16:41:52.245Z,-3.30
2022-11-20T16:44:20.535Z,-3.53
2022-11-20T16:46:48.373Z,-3.27
2022-11-20T16:49:16.434Z,-3.36
2022-11-20T16:51:44.497Z,-3.56
2022-11-20T16:54:21.273Z,-3.51
2022-11-20T16:56:52.106Z,-3.40
2022-11-20T16:59:20.055Z,-3.38
2022-11-20T17:01:47.943Z,-3.45
2022-11-20T17:04:16.395Z,-3.53
2022-11-20T17:06:45.448Z,-3.65
2022-11-20T17:09:14.012Z,-3.70
2022-11-20T17:11:42.432Z,-3.64
2022-11-20T17:14:12.092Z,-3.59
2022-11-20T17:16:40.221Z,-3.53
2022-11-20T17:19:08.574Z,-3.50
2022-11-20T17:21:37.129Z,-4.01
2022-11-20T17:24:08.373Z,-3.46
2022-11-20T17:26:38.065Z,-3.41
2022-11-20T17:29:19.038Z,-3.41
2022-11-20T17:31:48.762Z,-3.38
2022-11-20T17:34:17.325Z,-3.46
2022-11-20T17:36:46.623Z,-3.33
2022-11-20T17:39:17.657Z,-3.54
2022-11-20T17:42:06.416Z,-3.12
2022-11-20T17:44:35.460Z,-2.98
2022-11-20T17:47:03.544Z,-2.93
2022-11-20T17:49:31.619Z,-2.82
2022-11-20T17:52:00.334Z,-2.74
2022-11-20T17:54:28.329Z,-2.68
2022-11-20T17:57:14.986Z,-2.62
2022-11-20T17:59:43.418Z,-2.88
2022-11-20T18:02:11.391Z,-2.59
2022-11-20T18:04:39.475Z,-2.56
2022-11-20T18:07:07.605Z,-2.49
2022-11-20T18:09:36.096Z,-2.57
2022-11-20T18:12:04.559Z,-2.77
2022-11-20T18:14:33.016Z,-2.46
2022-11-20T18:17:13.001Z,-2.62
2022-11-20T18:20:21.384Z,-2.46
2022-11-20T18:22:38.692Z,-2.46
2022-11-20T18:25:07.315Z,-2.38
2022-11-20T18:27:35.516Z,-2.44
2022-11-20T18:30:03.970Z,-2.44
2022-11-20T18:32:34.229Z,-2.36
2022-11-20T18:35:02.415Z,-2.38
2022-11-20T18:37:32.373Z,-2.38
2022-11-20T18:40:00.441Z,-2.37
2022-11-20T18:42:47.328Z,-2.34
2022-11-20T18:45:15.594Z,-2.29
2022-11-20T18:47:44.284Z,-2.30
2022-11-20T18:50:12.448Z,-2.42
2022-11-20T18:52:48.027Z,-2.57
2022-11-20T18:55:17.901Z,-2.58
2022-11-20T18:57:45.964Z,-2.71
2022-11-20T19:00:14.732Z,-2.40
2022-11-20T19:02:43.552Z,-2.79
2022-11-20T19:05:15.066Z,-2.27
2022-11-20T19:07:43.852Z,-2.18
2022-11-20T19:10:12.169Z,-1.96
2022-11-20T19:12:40.650Z,-1.90
2022-11-20T19:15:09.628Z,-1.93
2022-11-20T19:17:38.118Z,-1.61
2022-11-20T19:20:07.226Z,-1.57
2022-11-20T19:22:35.297Z,-1.57
2022-11-20T19:25:03.473Z,-1.51
2022-11-20T19:27:31.697Z,-1.38
2022-11-20T19:30:03.746Z,-1.62
2022-11-20T19:32:32.840Z,-1.73
2022-11-20T19:35:00.909Z,-1.39
2022-11-20T19:37:29.286Z,-1.57
2022-11-20T19:39:59.874Z,-1.24
2022-11-20T19:42:27.896Z,-1.19
2022-11-20T19:44:58.504Z,-1.19
2022-11-20T19:47:40.854Z,-1.19
2022-11-20T19:50:16.259Z,-1.47
2022-11-20T19:52:45.798Z,-1.65
2022-11-20T19:55:13.931Z,-1.27
2022-11-20T19:57:42.349Z,-1.19
2022-11-20T20:00:12.459Z,-1.19
2022-11-20T20:02:40.955Z,-1.13
2022-11-20T20:05:10.225Z,-1.38
2022-11-20T20:07:40.269Z,-1.38
2022-11-20T20:10:09.294Z,-1.05
2022-11-20T20:12:37.711Z,-1.32
2022-11-20T20:15:09.504Z,-1.07
2022-11-20T20:17:37.496Z,-1.01
2022-11-20T20:20:06.542Z,-1.22
2022-11-20T20:22:34.951Z,-1.00
2022-11-20T20:25:03.014Z,-1.05
2022-11-20T20:27:31.817Z,-1.18
2022-11-20T20:30:00.337Z,-1.14
2022-11-20T20:32:28.617Z,-1.54
2022-11-20T20:34:57.844Z,-1.28
2022-11-20T20:37:26.363Z,-1.61
2022-11-20T20:39:56.193Z,-1.37
2022-11-20T20:42:27.958Z,-1.45
2022-11-20T20:45:11.802Z,-1.48
2022-11-20T20:47:43.217Z,-1.46
2022-11-20T20:50:13.326Z,-1.38
2022-11-20T20:52:42.769Z,-1.36
2022-11-20T20:55:11.414Z,-1.32
2022-11-20T20:57:39.474Z,-1.33
2022-11-20T21:00:09.137Z,-1.28
2022-11-20T21:02:38.048Z,-1.47
2022-11-20T21:05:06.576Z,-1.46
2022-11-20T21:07:34.684Z,-1.41
2022-11-20T21:10:03.168Z,-1.49
2022-11-20T21:12:32.572Z,-1.39
2022-11-20T21:15:00.772Z,-1.34
2022-11-20T21:17:29.548Z,-1.31
2022-11-20T21:19:57.744Z,-1.30
2022-11-20T21:22:25.975Z,-1.19
2022-11-20T21:24:54.265Z,-1.12
2022-11-20T21:27:22.467Z,-1.08
2022-11-20T21:29:50.391Z,-1.09
2022-11-20T21:32:18.643Z,-1.57
2022-11-20T21:34:46.634Z,-1.22
2022-11-20T21:37:14.791Z,-1.23
2022-11-20T21:39:50.978Z,-1.25
2022-11-20T21:42:19.045Z,-1.16
2022-11-20T21:44:48.229Z,-1.07
2022-11-20T21:47:20.031Z,-1.08
2022-11-20T21:49:48.757Z,-1.04
2022-11-20T21:52:17.488Z,-0.93
2022-11-20T21:54:45.629Z,-0.96
2022-11-20T21:57:13.818Z,-0.89
2022-11-20T21:59:41.676Z,-0.87
2022-11-20T22:02:13.068Z,-0.78
2022-11-20T22:04:41.961Z,-0.80
2022-11-20T22:07:10.092Z,-0.68
2022-11-20T22:09:38.374Z,-0.66
2022-11-20T22:12:06.443Z,-0.88
2022-11-20T22:14:34.427Z,-0.66
2022-11-20T22:17:02.416Z,-0.68
2022-11-20T22:19:30.551Z,-1.01
2022-11-20T22:21:59.465Z,-1.17
2022-11-20T22:24:27.944Z,-1.26
2022-11-20T22:26:56.131Z,-0.82
2022-11-20T22:29:24.003Z,-1.09
2022-11-20T22:31:53.381Z,-1.12
2022-11-20T22:34:22.055Z,-0.65
2022-11-20T22:36:50.753Z,-0.66
2022-11-20T22:39:18.930Z,-0.71
2022-11-20T22:41:46.885Z,-0.66
2022-11-20T22:44:16.463Z,-0.77
2022-11-20T22:46:44.456Z,-0.86
2022-11-20T22:49:12.796Z,-0.50
2022-11-20T22:51:41.724Z,-0.48
2022-11-20T22:54:12.891Z,-0.56
2022-11-20T22:56:41.641Z,-0.85
2022-11-20T22:59:09.879Z,-0.60
2022-11-20T23:01:38.539Z,-0.87
2022-11-20T23:04:10.511Z,-0.61
2022-11-20T23:06:38.704Z,-1.11
2022-11-20T23:09:08.268Z,-1.01
2022-11-20T23:11:36.730Z,-1.29
2022-11-20T23:14:12.097Z,-0.76
2022-11-20T23:16:40.293Z,-0.63
2022-11-20T23:19:12.248Z,-0.71
2022-11-20T23:21:42.372Z,-1.64
2022-11-20T23:24:10.707Z,-0.73
2022-11-20T23:26:40.705Z,-0.70
2022-11-20T23:29:08.891Z,-0.75
2022-11-20T23:31:37.304Z,-0.71
2022-11-20T23:34:05.816Z,-0.66
2022-11-20T23:36:34.445Z,-0.93
2022-11-20T23:39:02.572Z,-0.66
2022-11-20T23:41:30.591Z,-0.62
2022-11-20T23:43:58.603Z,-0.65
2022-11-20T23:46:26.753Z,-1.13
2022-11-20T23:48:54.685Z,-0.64
2022-11-20T23:51:22.621Z,-0.64
2022-11-20T23:53:50.573Z,-1.00
2022-11-20T23:56:18.497Z,-0.59
2022-11-20T23:58:46.389Z,-0.81
